createdAt,value
2022-10-08T00:01:15.175Z,15.10
2022-10-08T00:03:44.621Z,15.11
2022-10-08T00:06:17.090Z,15.16
2022-10-08T00:08:49.475Z,15.08
2022-10-08T00:11:21.015Z,15.02
2022-10-08T00:13:48.972Z,14.92
2022-10-08T00:16:25.166Z,14.96
2022-10-08T00:18:55.372Z,14.90
2022-10-08T00:21:25.644Z,14.86
2022-10-08T00:23:53.350Z,14.86
2022-10-08T00:26:26.021Z,14.87
2022-10-08T00:28:56.113Z,14.85
2022-10-08T00:31:45.670Z,14.84
2022-10-08T00:34:23.636Z,14.77
2022-10-08T00:36:52.629Z,14.66
2022-10-08T00:39:22.701Z,14.66
2022-10-08T00:41:52.686Z,14.63
2022-10-08T00:44:48.058Z,14.69
2022-10-08T00:47:19.451Z,14.69
2022-10-08T00:49:49.485Z,14.71
2022-10-08T00:52:17.770Z,14.76
2022-10-08T00:54:46.011Z,14.69
2022-10-08T00:57:13.061Z,14.69
2022-10-08T00:59:39.972Z,14.70
2022-10-08T01:02:12.363Z,14.71
2022-10-08T01:04:41.268Z,14.62
2022-10-08T01:07:26.340Z,14.61
2022-10-08T01:10:03.691Z,14.47
2022-10-08T01:12:53.718Z,14.53
2022-10-08T01:15:59.328Z,14.56
2022-10-08T01:18:41.333Z,14.52
2022-10-08T01:21:19.021Z,14.46
2022-10-08T01:24:06.793Z,14.34
2022-10-08T01:26:57.353Z,14.16
2022-10-08T01:29:32.657Z,14.25
2022-10-08T01:32:04.604Z,14.20
2022-10-08T01:34:44.321Z,14.12
2022-10-08T01:37:22.395Z,14.08
2022-10-08T01:39:52.586Z,14.11
2022-10-08T01:42:23.506Z,14.14
2022-10-08T01:44:57.275Z,13.98
2022-10-08T01:47:29.090Z,13.94
2022-10-08T01:50:03.397Z,13.92
2022-10-08T01:52:37.188Z,13.94
2022-10-08T01:55:12.188Z,14.03
2022-10-08T01:57:41.262Z,13.98
2022-10-08T02:00:12.641Z,13.78
2022-10-08T02:02:40.836Z,13.59
2022-10-08T02:05:08.742Z,13.46
2022-10-08T02:07:38.059Z,13.34
2022-10-08T02:10:17.594Z,13.39
2022-10-08T02:12:45.901Z,13.31
2022-10-08T02:15:35.611Z,13.26
2022-10-08T02:18:20.492Z,13.31
2022-10-08T02:20:50.675Z,13.16
2022-10-08T02:23:31.455Z,12.98
2022-10-08T02:26:00.640Z,12.90
2022-10-08T02:28:44.399Z,12.91
2022-10-08T02:31:23.728Z,12.82
2022-10-08T02:33:59.579Z,12.79
2022-10-08T02:36:31.512Z,12.83
2022-10-08T02:39:04.174Z,12.69
2022-10-08T02:41:36.607Z,12.58
2022-10-08T02:44:09.171Z,12.53
2022-10-08T02:46:40.727Z,12.37
2022-10-08T02:49:25.372Z,12.27
2022-10-08T02:51:55.095Z,12.25
2022-10-08T02:54:23.925Z,12.28
2022-10-08T02:56:56.744Z,12.37
2022-10-08T02:59:25.408Z,12.39
2022-10-08T03:01:59.713Z,12.41
2022-10-08T03:04:31.829Z,12.35
2022-10-08T03:07:00.317Z,12.32
2022-10-08T03:09:33.871Z,12.22
2022-10-08T03:12:01.303Z,12.06
2022-10-08T03:14:31.092Z,12.11
2022-10-08T03:16:58.158Z,12.24
2022-10-08T03:19:25.300Z,12.20
2022-10-08T03:21:55.009Z,12.31
2022-10-08T03:24:22.459Z,12.36
2022-10-08T03:26:49.475Z,12.23
2022-10-08T03:29:16.471Z,12.24
2022-10-08T03:31:43.432Z,12.24
2022-10-08T03:34:10.615Z,12.09
2022-10-08T03:36:37.513Z,12.13
2022-10-08T03:39:06.032Z,12.24
2022-10-08T03:41:33.209Z,12.17
2022-10-08T03:44:00.881Z,12.05
2022-10-08T03:46:27.882Z,12.15
2022-10-08T03:48:55.092Z,12.09
2022-10-08T03:51:23.825Z,12.00
2022-10-08T03:53:50.819Z,11.86
2022-10-08T03:56:21.154Z,11.73
2022-10-08T03:58:53.783Z,11.72
2022-10-08T04:01:20.978Z,11.86
2022-10-08T04:03:47.957Z,11.97
2022-10-08T04:06:15.694Z,12.00
2022-10-08T04:08:42.953Z,12.00
2022-10-08T04:11:15.197Z,12.00
2022-10-08T04:13:43.268Z,11.91
2022-10-08T04:16:16.107Z,11.86
2022-10-08T04:18:43.868Z,11.61
2022-10-08T04:21:13.155Z,11.58
2022-10-08T04:23:42.041Z,11.45
2022-10-08T04:26:10.340Z,11.45
2022-10-08T04:28:39.376Z,11.41
2022-10-08T04:31:10.467Z,11.62
2022-10-08T04:33:37.825Z,11.50
2022-10-08T04:36:09.510Z,11.39
2022-10-08T04:38:36.961Z,11.33
2022-10-08T04:41:15.944Z,11.33
2022-10-08T04:43:44.768Z,11.44
2022-10-08T04:46:14.705Z,11.41
2022-10-08T04:48:45.670Z,11.33
2022-10-08T04:51:12.664Z,11.23
2022-10-08T04:53:39.838Z,11.25
2022-10-08T04:56:17.127Z,11.20
2022-10-08T04:58:45.156Z,11.18
2022-10-08T05:01:15.342Z,11.21
2022-10-08T05:03:46.812Z,11.08
2022-10-08T05:06:17.937Z,11.33
2022-10-08T05:08:45.567Z,11.44
2022-10-08T05:11:14.118Z,11.57
2022-10-08T05:13:41.754Z,11.62
2022-10-08T05:16:13.364Z,11.53
2022-10-08T05:18:42.152Z,11.52
2022-10-08T05:21:12.086Z,11.58
2022-10-08T05:23:39.421Z,11.82
2022-10-08T05:26:13.226Z,11.87
2022-10-08T05:28:40.424Z,11.82
2022-10-08T05:31:07.566Z,11.64
2022-10-08T05:33:37.358Z,11.72
2022-10-08T05:36:10.511Z,11.50
2022-10-08T05:38:37.573Z,11.33
2022-10-08T05:41:13.251Z,11.22
2022-10-08T05:43:40.254Z,11.21
2022-10-08T05:46:07.561Z,11.35
2022-10-08T05:48:34.952Z,11.52
2022-10-08T05:51:15.787Z,11.74
2022-10-08T05:53:47.564Z,11.96
2022-10-08T05:56:17.358Z,11.80
2022-10-08T05:58:45.038Z,11.79
2022-10-08T06:01:28.207Z,11.83
2022-10-08T06:03:57.895Z,11.80
2022-10-08T06:06:25.301Z,11.83
2022-10-08T06:08:58.724Z,11.96
2022-10-08T06:11:26.603Z,12.00
2022-10-08T06:13:54.640Z,12.01
2022-10-08T06:16:22.224Z,12.18
2022-10-08T06:18:49.672Z,12.25
2022-10-08T06:21:19.635Z,12.39
2022-10-08T06:23:47.598Z,12.25
2022-10-08T06:26:15.538Z,12.37
2022-10-08T06:28:42.583Z,12.63
2022-10-08T06:31:09.610Z,12.85
2022-10-08T06:33:36.895Z,12.87
2022-10-08T06:36:25.250Z,12.71
2022-10-08T06:38:57.797Z,12.81
2022-10-08T06:41:25.855Z,12.80
2022-10-08T06:43:52.882Z,12.87
2022-10-08T06:46:20.613Z,12.93
2022-10-08T06:48:48.113Z,12.93
2022-10-08T06:51:17.344Z,13.00
2022-10-08T06:53:48.269Z,13.02
2022-10-08T06:56:18.071Z,13.11
2022-10-08T06:58:47.603Z,13.38
2022-10-08T07:01:16.405Z,13.35
2022-10-08T07:03:43.885Z,13.44
2022-10-08T07:06:12.963Z,13.67
2022-10-08T07:08:40.385Z,13.57
2022-10-08T07:11:16.740Z,13.71
2022-10-08T07:13:44.713Z,13.71
2022-10-08T07:16:20.739Z,13.54
2022-10-08T07:18:50.249Z,13.42
2022-10-08T07:21:19.532Z,13.65
2022-10-08T07:23:46.655Z,13.83
2022-10-08T07:26:14.894Z,13.77
2022-10-08T07:28:51.132Z,14.34
2022-10-08T07:31:23.908Z,14.50
2022-10-08T07:33:51.357Z,14.50
2022-10-08T07:36:21.161Z,14.66
2022-10-08T07:38:48.636Z,14.96
2022-10-08T07:41:15.588Z,14.76
2022-10-08T07:43:43.398Z,14.82
2022-10-08T07:46:12.046Z,14.84
2022-10-08T07:48:39.921Z,15.10
2022-10-08T07:51:17.928Z,15.41
2022-10-08T07:53:45.224Z,15.66
2022-10-08T07:56:14.590Z,15.55
2022-10-08T07:58:42.486Z,15.75
2022-10-08T08:01:14.247Z,15.72
2022-10-08T08:03:41.223Z,15.53
2022-10-08T08:06:16.254Z,15.73
2022-10-08T08:08:45.204Z,15.76
2022-10-08T08:11:15.350Z,15.89
2022-10-08T08:13:42.927Z,15.73
2022-10-08T08:16:12.806Z,15.86
2022-10-08T08:18:42.960Z,16.04
2022-10-08T08:21:11.484Z,15.86
2022-10-08T08:23:44.443Z,15.76
2022-10-08T08:26:33.050Z,15.89
2022-10-08T08:29:05.250Z,15.60
2022-10-08T08:31:34.969Z,15.61
2022-10-08T08:34:03.578Z,15.85
2022-10-08T08:36:33.802Z,16.08
2022-10-08T08:39:01.788Z,16.44
2022-10-08T08:41:45.341Z,16.17
2022-10-08T08:44:12.377Z,16.52
2022-10-08T08:46:43.562Z,17.02
2022-10-08T08:49:25.884Z,17.36
2022-10-08T08:51:53.830Z,17.53
2022-10-08T08:54:20.998Z,16.73
2022-10-08T08:56:49.089Z,17.18
2022-10-08T08:59:33.942Z,16.50
2022-10-08T09:02:06.205Z,16.81
2022-10-08T09:04:33.170Z,18.07
2022-10-08T09:07:02.174Z,18.10
2022-10-08T09:09:32.350Z,17.88
2022-10-08T09:12:00.468Z,17.96
2022-10-08T09:14:41.104Z,17.75
2022-10-08T09:17:35.890Z,17.83
2022-10-08T09:20:03.378Z,17.85
2022-10-08T09:22:40.831Z,17.92
2022-10-08T09:25:16.805Z,17.91
2022-10-08T09:27:48.380Z,18.31
2022-10-08T09:30:24.376Z,18.38
2022-10-08T09:32:53.981Z,17.98
2022-10-08T09:35:24.081Z,17.76
2022-10-08T09:37:52.350Z,18.14
2022-10-08T09:40:27.847Z,18.50
2022-10-08T09:43:12.042Z,18.40
2022-10-08T09:45:43.016Z,18.45
2022-10-08T09:48:12.987Z,17.88
2022-10-08T09:50:50.338Z,18.05
2022-10-08T09:53:18.096Z,18.36
2022-10-08T09:55:54.365Z,18.40
2022-10-08T09:58:21.894Z,17.98
2022-10-08T10:01:05.015Z,17.65
2022-10-08T10:03:32.917Z,17.60
2022-10-08T10:06:00.288Z,17.30
2022-10-08T10:08:46.745Z,17.56
2022-10-08T10:11:21.188Z,17.47
2022-10-08T10:13:50.486Z,17.63
2022-10-08T10:16:26.368Z,17.91
2022-10-08T10:19:03.864Z,18.23
2022-10-08T10:21:59.674Z,18.55
2022-10-08T10:25:06.320Z,19.12
2022-10-08T10:27:38.886Z,19.24
2022-10-08T10:30:18.743Z,20.03
2022-10-08T10:33:07.128Z,19.46
2022-10-08T10:35:44.561Z,19.98
2022-10-08T10:38:14.790Z,20.44
2022-10-08T10:40:50.540Z,19.94
2022-10-08T10:43:44.512Z,19.74
2022-10-08T10:46:32.207Z,19.43
2022-10-08T10:48:59.850Z,19.96
2022-10-08T10:51:26.689Z,20.46
2022-10-08T10:54:06.715Z,20.96
2022-10-08T10:56:42.547Z,21.35
2022-10-08T10:59:25.713Z,21.05
2022-10-08T11:02:36.773Z,21.27
2022-10-08T11:05:24.053Z,21.23
2022-10-08T11:08:20.140Z,21.07
2022-10-08T11:11:08.807Z,21.12
2022-10-08T11:14:11.702Z,20.84
2022-10-08T11:16:38.663Z,21.04
2022-10-08T11:19:17.958Z,20.82
2022-10-08T11:22:11.175Z,21.06
2022-10-08T11:25:00.557Z,20.70
2022-10-08T11:27:56.336Z,21.01
2022-10-08T11:30:48.185Z,20.64
2022-10-08T11:33:17.091Z,20.38
2022-10-08T11:36:19.225Z,21.08
2022-10-08T11:39:27.456Z,20.73
2022-10-08T11:42:06.844Z,20.75
2022-10-08T11:44:34.193Z,21.24
2022-10-08T11:47:35.815Z,21.21
2022-10-08T11:50:05.711Z,21.20
2022-10-08T11:52:34.324Z,21.51
2022-10-08T11:55:02.249Z,20.63
2022-10-08T11:57:55.945Z,20.77
2022-10-08T12:00:40.488Z,21.16
2022-10-08T12:03:30.585Z,20.69
2022-10-08T12:06:00.824Z,21.13
2022-10-08T12:08:50.284Z,20.79
2022-10-08T12:11:32.557Z,21.21
2022-10-08T12:14:11.583Z,21.15
2022-10-08T12:16:47.864Z,21.05
2022-10-08T12:19:36.253Z,21.40
2022-10-08T12:22:25.320Z,21.38
2022-10-08T12:24:55.590Z,20.97
2022-10-08T12:27:27.293Z,21.63
2022-10-08T12:30:01.706Z,21.92
2022-10-08T12:32:51.241Z,22.10
2022-10-08T12:35:38.313Z,22.10
2022-10-08T12:38:05.250Z,22.25
2022-10-08T12:41:06.752Z,21.91
2022-10-08T12:43:46.475Z,21.30
2022-10-08T12:46:19.421Z,21.43
2022-10-08T12:49:01.169Z,20.98
2022-10-08T12:51:50.246Z,21.22
2022-10-08T12:54:20.039Z,21.22
2022-10-08T12:56:47.985Z,21.26
2022-10-08T12:59:15.517Z,21.28
2022-10-08T13:01:44.848Z,21.75
2022-10-08T13:04:20.875Z,21.74
2022-10-08T13:06:49.864Z,21.78
2022-10-08T13:09:27.597Z,22.10
2022-10-08T13:12:01.992Z,22.52
2022-10-08T13:14:36.741Z,22.28
2022-10-08T13:17:04.638Z,22.26
2022-10-08T13:19:37.373Z,21.48
2022-10-08T13:22:08.788Z,21.40
2022-10-08T13:24:39.990Z,21.58
2022-10-08T13:27:25.663Z,21.38
2022-10-08T13:29:53.421Z,21.41
2022-10-08T13:32:22.248Z,21.29
2022-10-08T13:35:12.121Z,21.60
2022-10-08T13:37:40.648Z,21.64
2022-10-08T13:40:13.291Z,21.57
2022-10-08T13:42:44.875Z,21.42
2022-10-08T13:45:38.032Z,21.39
2022-10-08T13:48:09.990Z,21.18
2022-10-08T13:50:47.709Z,21.53
2022-10-08T13:53:17.108Z,21.57
2022-10-08T13:55:46.541Z,21.49
2022-10-08T13:58:15.499Z,21.70
2022-10-08T14:00:45.187Z,21.40
2022-10-08T14:03:15.430Z,21.48
2022-10-08T14:05:45.438Z,21.16
2022-10-08T14:08:14.979Z,21.10
2022-10-08T14:10:42.213Z,21.05
2022-10-08T14:13:13.980Z,20.89
2022-10-08T14:15:41.698Z,20.90
2022-10-08T14:18:08.682Z,21.10
2022-10-08T14:20:36.772Z,21.05
2022-10-08T14:23:03.793Z,20.74
2022-10-08T14:25:31.259Z,20.78
2022-10-08T14:27:59.660Z,20.78
2022-10-08T14:30:27.392Z,20.86
2022-10-08T14:32:55.693Z,20.90
2022-10-08T14:35:22.869Z,20.74
2022-10-08T14:37:50.447Z,21.21
2022-10-08T14:40:21.768Z,21.25
2022-10-08T14:42:49.341Z,21.26
2022-10-08T14:45:16.761Z,21.28
2022-10-08T14:47:43.777Z,20.80
2022-10-08T14:50:10.760Z,20.85
2022-10-08T14:52:41.835Z,21.09
2022-10-08T14:55:11.535Z,21.09
2022-10-08T14:57:38.528Z,20.93
2022-10-08T15:00:06.708Z,20.99
2022-10-08T15:02:36.975Z,20.48
2022-10-08T15:05:04.508Z,20.43
2022-10-08T15:07:31.455Z,20.37
2022-10-08T15:09:59.043Z,20.24
2022-10-08T15:12:25.948Z,20.13
2022-10-08T15:14:53.021Z,20.19
2022-10-08T15:17:20.036Z,20.14
2022-10-08T15:19:47.177Z,20.07
2022-10-08T15:22:14.108Z,19.94
2022-10-08T15:24:41.588Z,19.94
2022-10-08T15:27:08.689Z,19.95
2022-10-08T15:29:36.439Z,19.84
2022-10-08T15:32:03.555Z,19.66
2022-10-08T15:34:30.626Z,19.58
2022-10-08T15:36:57.593Z,19.51
2022-10-08T15:39:24.654Z,19.36
2022-10-08T15:41:53.335Z,19.15
2022-10-08T15:44:22.279Z,19.08
2022-10-08T15:46:59.094Z,19.02
2022-10-08T15:49:31.471Z,19.02
2022-10-08T15:51:59.226Z,19.06
2022-10-08T15:54:26.256Z,18.98
2022-10-08T15:56:53.426Z,18.92
2022-10-08T15:59:20.558Z,18.88
2022-10-08T16:01:47.715Z,18.77
2022-10-08T16:04:14.928Z,18.92
2022-10-08T16:06:45.352Z,18.80
2022-10-08T16:09:14.217Z,18.74
2022-10-08T16:11:41.916Z,18.68
2022-10-08T16:14:20.925Z,18.54
2022-10-08T16:16:48.753Z,18.41
2022-10-08T16:19:19.063Z,18.25
2022-10-08T16:21:48.273Z,18.25
2022-10-08T16:24:16.047Z,18.24
2022-10-08T16:26:44.343Z,18.18
2022-10-08T16:29:13.715Z,18.14
2022-10-08T16:31:43.082Z,18.02
2022-10-08T16:34:16.467Z,17.93
2022-10-08T16:36:44.210Z,17.88
2022-10-08T16:39:12.580Z,17.81
2022-10-08T16:41:39.792Z,17.75
2022-10-08T16:44:12.614Z,17.70
2022-10-08T16:46:48.562Z,17.65
2022-10-08T16:49:24.049Z,17.66
2022-10-08T16:51:54.696Z,17.76
2022-10-08T16:54:21.739Z,17.74
2022-10-08T16:56:48.811Z,17.63
2022-10-08T16:59:19.559Z,17.56
2022-10-08T17:01:49.523Z,17.50
2022-10-08T17:04:17.510Z,17.46
2022-10-08T17:06:46.155Z,17.43
2022-10-08T17:09:13.300Z,17.46
2022-10-08T17:11:40.331Z,17.44
2022-10-08T17:14:07.912Z,17.41
2022-10-08T17:16:36.247Z,17.34
2022-10-08T17:19:04.700Z,17.33
2022-10-08T17:21:32.934Z,17.39
2022-10-08T17:24:01.656Z,17.45
2022-10-08T17:26:29.910Z,17.42
2022-10-08T17:28:57.607Z,17.32
2022-10-08T17:31:27.356Z,17.25
2022-10-08T17:33:54.197Z,17.18
2022-10-08T17:36:23.646Z,17.19
2022-10-08T17:38:52.938Z,17.32
2022-10-08T17:41:21.182Z,17.28
2022-10-08T17:43:49.080Z,17.20
2022-10-08T17:46:34.875Z,17.19
2022-10-08T17:49:03.927Z,17.25
2022-10-08T17:51:31.289Z,17.43
2022-10-08T17:54:03.769Z,17.52
2022-10-08T17:56:31.759Z,17.38
2022-10-08T17:58:58.900Z,17.36
2022-10-08T18:01:31.207Z,17.27
2022-10-08T18:04:00.610Z,17.22
2022-10-08T18:06:29.217Z,17.17
2022-10-08T18:09:02.828Z,17.19
2022-10-08T18:11:32.700Z,17.21
2022-10-08T18:14:01.095Z,17.13
2022-10-08T18:16:31.150Z,17.04
2022-10-08T18:18:58.535Z,17.01
2022-10-08T18:21:25.900Z,16.94
2022-10-08T18:23:53.145Z,16.87
2022-10-08T18:26:42.185Z,16.81
2022-10-08T18:29:11.801Z,16.92
2022-10-08T18:31:41.233Z,16.95
2022-10-08T18:34:13.459Z,16.91
2022-10-08T18:36:40.758Z,17.04
2022-10-08T18:39:17.150Z,16.98
2022-10-08T18:41:47.245Z,16.98
2022-10-08T18:44:23.239Z,17.02
2022-10-08T18:46:50.736Z,16.99
2022-10-08T18:49:20.561Z,16.99
2022-10-08T18:51:49.420Z,16.95
2022-10-08T18:54:16.491Z,17.01
2022-10-08T18:56:43.578Z,17.06
2022-10-08T18:59:15.544Z,17.03
2022-10-08T19:01:47.316Z,17.06
2022-10-08T19:04:18.309Z,17.02
2022-10-08T19:06:47.074Z,17.15
2022-10-08T19:09:15.309Z,17.16
2022-10-08T19:11:46.036Z,17.12
2022-10-08T19:14:15.845Z,17.14
2022-10-08T19:16:43.549Z,17.05
2022-10-08T19:19:24.933Z,17.13
2022-10-08T19:21:53.120Z,17.10
2022-10-08T19:24:25.027Z,17.09
2022-10-08T19:26:53.717Z,16.98
2022-10-08T19:29:26.507Z,17.02
2022-10-08T19:31:53.686Z,16.87
2022-10-08T19:34:23.903Z,16.87
2022-10-08T19:36:51.518Z,16.80
2022-10-08T19:39:21.604Z,16.80
2022-10-08T19:41:49.193Z,16.69
2022-10-08T19:44:19.377Z,16.68
2022-10-08T19:46:46.952Z,16.79
2022-10-08T19:49:14.364Z,16.73
2022-10-08T19:51:42.897Z,16.73
2022-10-08T19:54:10.429Z,16.71
2022-10-08T19:56:37.867Z,16.73
2022-10-08T19:59:05.899Z,16.73
2022-10-08T20:01:35.751Z,16.67
2022-10-08T20:04:04.184Z,16.67
2022-10-08T20:06:32.507Z,16.56
2022-10-08T20:09:02.753Z,16.42
2022-10-08T20:11:31.424Z,16.25
2022-10-08T20:13:59.790Z,16.26
2022-10-08T20:16:33.949Z,16.39
2022-10-08T20:19:03.878Z,16.32
2022-10-08T20:21:33.524Z,16.22
2022-10-08T20:24:01.950Z,16.17
2022-10-08T20:26:35.153Z,16.16
2022-10-08T20:29:07.549Z,16.21
2022-10-08T20:31:40.592Z,16.14
2022-10-08T20:34:12.672Z,16.21
2022-10-08T20:36:39.936Z,16.22
2022-10-08T20:39:07.678Z,16.31
2022-10-08T20:41:35.223Z,16.28
2022-10-08T20:44:03.813Z,16.23
2022-10-08T20:46:33.115Z,16.17
2022-10-08T20:49:00.818Z,16.22
2022-10-08T20:51:29.098Z,16.27
2022-10-08T20:54:06.543Z,16.30
2022-10-08T20:56:40.153Z,16.39
2022-10-08T20:59:18.095Z,16.45
2022-10-08T21:01:46.712Z,16.34
2022-10-08T21:04:13.805Z,16.26
2022-10-08T21:06:46.289Z,16.11
2022-10-08T21:09:15.480Z,16.09
2022-10-08T21:11:42.981Z,15.97
2022-10-08T21:14:19.483Z,15.90
2022-10-08T21:16:46.539Z,15.80
2022-10-08T21:19:19.104Z,15.74
2022-10-08T21:21:46.567Z,15.68
2022-10-08T21:24:13.970Z,15.79
2022-10-08T21:26:42.721Z,16.05
2022-10-08T21:29:14.450Z,15.95
2022-10-08T21:31:45.464Z,15.88
2022-10-08T21:34:13.298Z,15.82
2022-10-08T21:36:42.104Z,15.82
2022-10-08T21:39:14.449Z,15.76
2022-10-08T21:41:41.493Z,15.79
2022-10-08T21:44:08.817Z,15.69
2022-10-08T21:46:40.919Z,15.68
2022-10-08T21:49:12.188Z,15.66
2022-10-08T21:51:39.801Z,15.78
2022-10-08T21:54:11.370Z,15.92
2022-10-08T21:56:39.807Z,15.93
2022-10-08T21:59:08.995Z,15.94
2022-10-08T22:01:39.278Z,16.02
2022-10-08T22:04:10.805Z,15.94
2022-10-08T22:06:41.642Z,15.92
2022-10-08T22:09:13.467Z,15.84
2022-10-08T22:11:40.933Z,15.71
2022-10-08T22:14:08.228Z,15.60
2022-10-08T22:16:35.578Z,15.51
2022-10-08T22:19:03.065Z,15.46
2022-10-08T22:21:30.139Z,15.33
2022-10-08T22:23:57.215Z,15.26
2022-10-08T22:26:33.203Z,15.19
2022-10-08T22:29:00.831Z,15.25
2022-10-08T22:31:28.626Z,15.17
2022-10-08T22:33:56.026Z,15.10
2022-10-08T22:36:26.214Z,15.03
2022-10-08T22:38:54.348Z,14.99
2022-10-08T22:41:26.746Z,14.98
2022-10-08T22:43:53.820Z,14.95
2022-10-08T22:46:27.961Z,14.90
2022-10-08T22:49:07.965Z,14.94
2022-10-08T22:51:34.961Z,14.89
2022-10-08T22:54:01.942Z,14.95
2022-10-08T22:56:31.518Z,14.95
2022-10-08T22:58:59.930Z,14.88
2022-10-08T23:01:28.514Z,14.88
2022-10-08T23:03:55.777Z,14.86
2022-10-08T23:06:32.076Z,14.85
2022-10-08T23:09:01.704Z,14.83
2022-10-08T23:11:30.244Z,14.83
2022-10-08T23:13:59.283Z,14.80
2022-10-08T23:16:27.961Z,14.77
2022-10-08T23:18:59.565Z,14.79
2022-10-08T23:21:27.327Z,14.85
2022-10-08T23:23:55.457Z,14.85
2022-10-08T23:26:23.926Z,14.86
2022-10-08T23:28:52.942Z,14.83
2022-10-08T23:31:22.891Z,14.79
2022-10-08T23:33:51.739Z,14.75
2022-10-08T23:36:26.872Z,14.75
2022-10-08T23:38:54.309Z,14.76
2022-10-08T23:41:21.344Z,14.69
2022-10-08T23:43:50.488Z,14.72
2022-10-08T23:46:21.688Z,14.75
2022-10-08T23:48:49.918Z,14.69
2022-10-08T23:51:18.005Z,14.69
2022-10-08T23:53:46.806Z,14.69
2022-10-08T23:56:14.676Z,14.65
2022-10-08T23:58:41.940Z,14.71
